sensor_id;sensor_type;location;lat;lon;timestamp;pressure;altitude;pressure_sealevel;temperature
18713;BMP280;9485;49.386;8.674;2023-03-14T00:03:31;98677.25;;;13.89
18713;BMP280;9485;49.386;8.674;2023-03-14T00:08:52;98688.59;;;13.89
18713;BMP280;9485;49.386;8.674;2023-03-14T00:14:14;98685.19;;;13.90
18713;BMP280;9485;49.386;8.674;2023-03-14T00:19:35;98685.41;;;13.92
18713;BMP280;9485;49.386;8.674;2023-03-14T00:24:56;98692.59;;;13.93
18713;BMP280;9485;49.386;8.674;2023-03-14T00:30:18;98671.63;;;13.96
18713;BMP280;9485;49.386;8.674;2023-03-14T00:35:39;98669.38;;;14.02
18713;BMP280;9485;49.386;8.674;2023-03-14T00:41:03;98647.25;;;14.08
18713;BMP280;9485;49.386;8.674;2023-03-14T00:46:25;98667.53;;;14.12
18713;BMP280;9485;49.386;8.674;2023-03-14T00:51:46;98662.28;;;14.16
18713;BMP280;9485;49.386;8.674;2023-03-14T00:57:07;98653.56;;;14.22
18713;BMP280;9485;49.386;8.674;2023-03-14T01:02:29;98660.97;;;14.25
18713;BMP280;9485;49.386;8.674;2023-03-14T01:07:50;98664.00;;;14.27
18713;BMP280;9485;49.386;8.674;2023-03-14T01:13:11;98661.75;;;14.32
18713;BMP280;9485;49.386;8.674;2023-03-14T01:18:33;98650.78;;;14.36
18713;BMP280;9485;49.386;8.674;2023-03-14T01:23:57;98659.28;;;14.36
18713;BMP280;9485;49.386;8.674;2023-03-14T01:29:18;98642.81;;;14.35
18713;BMP280;9485;49.386;8.674;2023-03-14T01:34:40;98633.69;;;14.14
18713;BMP280;9485;49.386;8.674;2023-03-14T01:40:01;98628.88;;;13.94
18713;BMP280;9485;49.386;8.674;2023-03-14T01:46:14;98616.50;;;13.77
18713;BMP280;9485;49.386;8.674;2023-03-14T01:51:46;98608.88;;;13.64
18713;BMP280;9485;49.386;8.674;2023-03-14T01:57:14;98586.75;;;13.63
18713;BMP280;9485;49.386;8.674;2023-03-14T02:02:36;98577.09;;;13.66
18713;BMP280;9485;49.386;8.674;2023-03-14T02:08:00;98574.13;;;13.71
18713;BMP280;9485;49.386;8.674;2023-03-14T02:13:26;98567.72;;;13.78
18713;BMP280;9485;49.386;8.674;2023-03-14T02:18:57;98580.22;;;13.83
18713;BMP280;9485;49.386;8.674;2023-03-14T02:24:43;98555.25;;;13.89
18713;BMP280;9485;49.386;8.674;2023-03-14T02:30:13;98572.13;;;13.94
18713;BMP280;9485;49.386;8.674;2023-03-14T02:35:37;98542.22;;;13.93
18713;BMP280;9485;49.386;8.674;2023-03-14T02:41:00;98536.00;;;13.95
18713;BMP280;9485;49.386;8.674;2023-03-14T02:46:25;98547.91;;;13.93
18713;BMP280;9485;49.386;8.674;2023-03-14T02:51:46;98540.72;;;13.92
18713;BMP280;9485;49.386;8.674;2023-03-14T02:57:07;98541.66;;;13.95
18713;BMP280;9485;49.386;8.674;2023-03-14T03:02:29;98524.63;;;13.95
18713;BMP280;9485;49.386;8.674;2023-03-14T03:07:49;98513.66;;;13.91
18713;BMP280;9485;49.386;8.674;2023-03-14T03:13:10;98523.69;;;13.85
18713;BMP280;9485;49.386;8.674;2023-03-14T03:18:32;98512.50;;;13.87
18713;BMP280;9485;49.386;8.674;2023-03-14T03:23:53;98495.31;;;13.85
18713;BMP280;9485;49.386;8.674;2023-03-14T03:29:13;98487.94;;;13.82
18713;BMP280;9485;49.386;8.674;2023-03-14T03:34:35;98466.00;;;13.82
18713;BMP280;9485;49.386;8.674;2023-03-14T03:39:56;98463.91;;;13.83
18713;BMP280;9485;49.386;8.674;2023-03-14T03:45:17;98446.16;;;13.82
18713;BMP280;9485;49.386;8.674;2023-03-14T03:50:47;98449.38;;;13.79
18713;BMP280;9485;49.386;8.674;2023-03-14T03:56:10;98453.13;;;13.74
18713;BMP280;9485;49.386;8.674;2023-03-14T04:01:32;98444.97;;;13.70
18713;BMP280;9485;49.386;8.674;2023-03-14T04:06:54;98461.25;;;13.70
18713;BMP280;9485;49.386;8.674;2023-03-14T04:12:16;98454.44;;;13.73
18713;BMP280;9485;49.386;8.674;2023-03-14T04:17:49;98453.13;;;13.74
18713;BMP280;9485;49.386;8.674;2023-03-14T04:23:12;98448.59;;;13.78
18713;BMP280;9485;49.386;8.674;2023-03-14T04:28:33;98436.69;;;13.72
18713;BMP280;9485;49.386;8.674;2023-03-14T04:33:55;98443.50;;;13.84
18713;BMP280;9485;49.386;8.674;2023-03-14T04:39:27;98428.19;;;13.87
18713;BMP280;9485;49.386;8.674;2023-03-14T04:44:58;98429.31;;;13.84
18713;BMP280;9485;49.386;8.674;2023-03-14T04:50:21;98407.94;;;13.83
18713;BMP280;9485;49.386;8.674;2023-03-14T04:55:48;98408.34;;;13.87
18713;BMP280;9485;49.386;8.674;2023-03-14T05:01:10;98408.91;;;13.86
18713;BMP280;9485;49.386;8.674;2023-03-14T05:06:49;98393.97;;;13.85
18713;BMP280;9485;49.386;8.674;2023-03-14T05:12:36;98400.56;;;13.88
18713;BMP280;9485;49.386;8.674;2023-03-14T05:18:16;98404.56;;;13.92
18713;BMP280;9485;49.386;8.674;2023-03-14T05:24:00;98418.94;;;13.94
18713;BMP280;9485;49.386;8.674;2023-03-14T05:29:42;98406.81;;;13.94
18713;BMP280;9485;49.386;8.674;2023-03-14T05:35:12;98409.28;;;13.90
18713;BMP280;9485;49.386;8.674;2023-03-14T05:40:58;98399.63;;;13.85
18713;BMP280;9485;49.386;8.674;2023-03-14T05:46:35;98394.16;;;13.87
18713;BMP280;9485;49.386;8.674;2023-03-14T05:52:15;98392.47;;;13.92
18713;BMP280;9485;49.386;8.674;2023-03-14T05:57:55;98396.63;;;13.91
18713;BMP280;9485;49.386;8.674;2023-03-14T06:03:37;98383.38;;;13.93
18713;BMP280;9485;49.386;8.674;2023-03-14T06:08:59;98377.13;;;13.95
18713;BMP280;9485;49.386;8.674;2023-03-14T06:14:20;98377.69;;;14.01
18713;BMP280;9485;49.386;8.674;2023-03-14T06:19:43;98380.16;;;14.04
18713;BMP280;9485;49.386;8.674;2023-03-14T06:25:07;98394.94;;;14.10
18713;BMP280;9485;49.386;8.674;2023-03-14T06:30:28;98383.97;;;14.14
18713;BMP280;9485;49.386;8.674;2023-03-14T06:35:50;98377.72;;;14.16
18713;BMP280;9485;49.386;8.674;2023-03-14T06:41:11;98373.75;;;14.11
18713;BMP280;9485;49.386;8.674;2023-03-14T06:46:34;98369.59;;;14.20
18713;BMP280;9485;49.386;8.674;2023-03-14T06:51:57;98374.09;;;14.23
18713;BMP280;9485;49.386;8.674;2023-03-14T06:57:17;98369.38;;;14.25
18713;BMP280;9485;49.386;8.674;2023-03-14T07:02:38;98373.91;;;14.28
18713;BMP280;9485;49.386;8.674;2023-03-14T07:08:02;98378.47;;;14.31
18713;BMP280;9485;49.386;8.674;2023-03-14T07:13:22;98377.31;;;14.34
18713;BMP280;9485;49.386;8.674;2023-03-14T07:18:49;98380.34;;;14.28
18713;BMP280;9485;49.386;8.674;2023-03-14T07:24:13;98386.59;;;14.27
18713;BMP280;9485;49.386;8.674;2023-03-14T07:29:34;98377.13;;;14.25
18713;BMP280;9485;49.386;8.674;2023-03-14T07:34:57;98383.75;;;14.27
18713;BMP280;9485;49.386;8.674;2023-03-14T07:40:20;98393.22;;;14.29
18713;BMP280;9485;49.386;8.674;2023-03-14T07:45:45;98400.81;;;14.20
18713;BMP280;9485;49.386;8.674;2023-03-14T07:51:08;98399.28;;;14.11
18713;BMP280;9485;49.386;8.674;2023-03-14T07:56:30;98401.72;;;14.15
18713;BMP280;9485;49.386;8.674;2023-03-14T08:01:51;98400.22;;;14.21
18713;BMP280;9485;49.386;8.674;2023-03-14T08:07:13;98397.38;;;14.36
18713;BMP280;9485;49.386;8.674;2023-03-14T08:12:36;98385.59;;;14.47
18713;BMP280;9485;49.386;8.674;2023-03-14T08:17:57;98403.16;;;14.68
18713;BMP280;9485;49.386;8.674;2023-03-14T08:23:17;98412.03;;;14.87
18713;BMP280;9485;49.386;8.674;2023-03-14T08:28:40;98367.91;;;14.78
18713;BMP280;9485;49.386;8.674;2023-03-14T08:34:03;98399.84;;;15.01
18713;BMP280;9485;49.386;8.674;2023-03-14T08:39:24;98400.75;;;15.11
18713;BMP280;9485;49.386;8.674;2023-03-14T08:44:46;98419.84;;;15.25
18713;BMP280;9485;49.386;8.674;2023-03-14T08:50:09;98427.00;;;15.34
18713;BMP280;9485;49.386;8.674;2023-03-14T08:55:31;98437.97;;;15.37
18713;BMP280;9485;49.386;8.674;2023-03-14T09:00:53;98437.63;;;15.33
18713;BMP280;9485;49.386;8.674;2023-03-14T09:06:14;98448.06;;;15.31
18713;BMP280;9485;49.386;8.674;2023-03-14T09:11:37;98457.41;;;15.24
18713;BMP280;9485;49.386;8.674;2023-03-14T09:16:59;98460.22;;;15.24
18713;BMP280;9485;49.386;8.674;2023-03-14T09:22:20;98452.88;;;15.06
18713;BMP280;9485;49.386;8.674;2023-03-14T09:27:42;98439.09;;;14.95
18713;BMP280;9485;49.386;8.674;2023-03-14T09:33:05;98440.59;;;14.96
18713;BMP280;9485;49.386;8.674;2023-03-14T09:38:26;98434.47;;;15.14
18713;BMP280;9485;49.386;8.674;2023-03-14T09:43:52;98425.16;;;15.21
18713;BMP280;9485;49.386;8.674;2023-03-14T09:49:21;98434.97;;;15.35
18713;BMP280;9485;49.386;8.674;2023-03-14T09:54:49;98431.28;;;15.50
18713;BMP280;9485;49.386;8.674;2023-03-14T10:00:18;98436.78;;;15.55
18713;BMP280;9485;49.386;8.674;2023-03-14T10:05:42;98441.94;;;15.49
18713;BMP280;9485;49.386;8.674;2023-03-14T10:11:04;98445.16;;;15.46
18713;BMP280;9485;49.386;8.674;2023-03-14T10:16:29;98452.19;;;15.37
18713;BMP280;9485;49.386;8.674;2023-03-14T10:21:54;98451.13;;;15.18
18713;BMP280;9485;49.386;8.674;2023-03-14T10:27:20;98456.47;;;14.99
18713;BMP280;9485;49.386;8.674;2023-03-14T10:32:46;98465.03;;;14.92
18713;BMP280;9485;49.386;8.674;2023-03-14T10:38:15;98452.75;;;14.89
18713;BMP280;9485;49.386;8.674;2023-03-14T10:43:37;98438.56;;;14.74
18713;BMP280;9485;49.386;8.674;2023-03-14T10:48:59;98453.19;;;14.48
18713;BMP280;9485;49.386;8.674;2023-03-14T10:54:30;98462.66;;;14.28
18713;BMP280;9485;49.386;8.674;2023-03-14T10:59:53;98467.78;;;14.15
18713;BMP280;9485;49.386;8.674;2023-03-14T11:05:28;98463.19;;;14.05
18713;BMP280;9485;49.386;8.674;2023-03-14T11:11:01;98465.44;;;13.91
18713;BMP280;9485;49.386;8.674;2023-03-14T11:16:34;98475.97;;;13.61
18713;BMP280;9485;49.386;8.674;2023-03-14T11:22:02;98461.16;;;13.33
18713;BMP280;9485;49.386;8.674;2023-03-14T11:27:36;98472.66;;;13.27
18713;BMP280;9485;49.386;8.674;2023-03-14T11:33:09;98463.34;;;13.12
18713;BMP280;9485;49.386;8.674;2023-03-14T11:38:41;98483.75;;;13.18
18713;BMP280;9485;49.386;8.674;2023-03-14T11:44:15;98505.34;;;13.28
18713;BMP280;9485;49.386;8.674;2023-03-14T11:49:44;98523.88;;;13.29
18713;BMP280;9485;49.386;8.674;2023-03-14T11:55:13;98543.88;;;13.31
18713;BMP280;9485;49.386;8.674;2023-03-14T12:00:40;98554.09;;;13.34
18713;BMP280;9485;49.386;8.674;2023-03-14T12:06:10;98580.00;;;13.38
18713;BMP280;9485;49.386;8.674;2023-03-14T12:11:40;98609.94;;;13.47
18713;BMP280;9485;49.386;8.674;2023-03-14T12:17:18;98621.44;;;13.48
18713;BMP280;9485;49.386;8.674;2023-03-14T12:22:43;98652.81;;;13.43
18713;BMP280;9485;49.386;8.674;2023-03-14T12:28:19;98647.38;;;13.25
18713;BMP280;9485;49.386;8.674;2023-03-14T12:33:41;98692.50;;;13.43
18713;BMP280;9485;49.386;8.674;2023-03-14T12:39:20;98716.34;;;13.48
18713;BMP280;9485;49.386;8.674;2023-03-14T12:44:48;98728.06;;;13.51
18713;BMP280;9485;49.386;8.674;2023-03-14T12:50:21;98740.47;;;13.41
18713;BMP280;9485;49.386;8.674;2023-03-14T12:55:49;98772.34;;;13.14
18713;BMP280;9485;49.386;8.674;2023-03-14T13:01:18;98801.56;;;12.88
18713;BMP280;9485;49.386;8.674;2023-03-14T13:06:51;98835.47;;;12.68
18713;BMP280;9485;49.386;8.674;2023-03-14T13:12:16;98848.34;;;12.56
18713;BMP280;9485;49.386;8.674;2023-03-14T13:17:41;98865.94;;;12.88
18713;BMP280;9485;49.386;8.674;2023-03-14T13:23:04;98879.72;;;13.38
18713;BMP280;9485;49.386;8.674;2023-03-14T13:28:28;98894.88;;;13.60
18713;BMP280;9485;49.386;8.674;2023-03-14T13:33:58;98920.47;;;13.68
18713;BMP280;9485;49.386;8.674;2023-03-14T13:39:23;98912.09;;;13.62
18713;BMP280;9485;49.386;8.674;2023-03-14T13:44:46;98930.50;;;13.69
18713;BMP280;9485;49.386;8.674;2023-03-14T13:50:15;98936.22;;;13.76
18713;BMP280;9485;49.386;8.674;2023-03-14T13:55:39;98960.38;;;13.70
18713;BMP280;9485;49.386;8.674;2023-03-14T14:01:06;98986.19;;;13.79
18713;BMP280;9485;49.386;8.674;2023-03-14T14:06:34;99001.09;;;13.93
18713;BMP280;9485;49.386;8.674;2023-03-14T14:12:02;99025.56;;;13.83
18713;BMP280;9485;49.386;8.674;2023-03-14T14:17:31;99050.34;;;13.82
18713;BMP280;9485;49.386;8.674;2023-03-14T14:22:54;99049.84;;;14.25
18713;BMP280;9485;49.386;8.674;2023-03-14T14:28:25;99064.34;;;14.82
18713;BMP280;9485;49.386;8.674;2023-03-14T14:33:55;99079.56;;;14.92
18713;BMP280;9485;49.386;8.674;2023-03-14T14:39:20;99091.66;;;14.85
18713;BMP280;9485;49.386;8.674;2023-03-14T14:44:43;99101.91;;;14.88
18713;BMP280;9485;49.386;8.674;2023-03-14T14:50:26;99118.97;;;14.88
18713;BMP280;9485;49.386;8.674;2023-03-14T14:55:51;99123.94;;;14.75
18713;BMP280;9485;49.386;8.674;2023-03-14T15:01:17;99150.84;;;14.74
18713;BMP280;9485;49.386;8.674;2023-03-14T15:06:42;99143.50;;;14.58
18713;BMP280;9485;49.386;8.674;2023-03-14T15:12:05;99172.66;;;14.38
18713;BMP280;9485;49.386;8.674;2023-03-14T15:17:27;99160.06;;;14.13
18713;BMP280;9485;49.386;8.674;2023-03-14T15:22:49;99172.94;;;14.14
18713;BMP280;9485;49.386;8.674;2023-03-14T15:28:16;99151.44;;;14.19
18713;BMP280;9485;49.386;8.674;2023-03-14T15:33:40;99177.38;;;14.23
18713;BMP280;9485;49.386;8.674;2023-03-14T15:39:04;99180.78;;;14.08
18713;BMP280;9485;49.386;8.674;2023-03-14T15:44:25;99193.22;;;14.18
18713;BMP280;9485;49.386;8.674;2023-03-14T15:49:47;99190.03;;;14.34
18713;BMP280;9485;49.386;8.674;2023-03-14T15:55:09;99196.06;;;14.51
18713;BMP280;9485;49.386;8.674;2023-03-14T16:00:31;99194.81;;;14.60
18713;BMP280;9485;49.386;8.674;2023-03-14T16:05:53;99194.19;;;14.54
18713;BMP280;9485;49.386;8.674;2023-03-14T16:11:15;99207.22;;;14.49
18713;BMP280;9485;49.386;8.674;2023-03-14T16:16:37;99223.38;;;14.54
18713;BMP280;9485;49.386;8.674;2023-03-14T16:22:00;99216.06;;;14.46
18713;BMP280;9485;49.386;8.674;2023-03-14T16:27:21;99219.53;;;14.31
18713;BMP280;9485;49.386;8.674;2023-03-14T16:32:45;99230.13;;;14.18
18713;BMP280;9485;49.386;8.674;2023-03-14T16:38:07;99225.75;;;14.04
18713;BMP280;9485;49.386;8.674;2023-03-14T16:43:29;99254.38;;;13.93
18713;BMP280;9485;49.386;8.674;2023-03-14T16:48:52;99260.50;;;13.84
18713;BMP280;9485;49.386;8.674;2023-03-14T16:54:14;99275.13;;;13.75
18713;BMP280;9485;49.386;8.674;2023-03-14T16:59:35;99278.72;;;13.63
18713;BMP280;9485;49.386;8.674;2023-03-14T17:04:56;99290.56;;;13.48
18713;BMP280;9485;49.386;8.674;2023-03-14T17:10:18;99297.53;;;13.35
18713;BMP280;9485;49.386;8.674;2023-03-14T17:15:44;99300.31;;;13.22
18713;BMP280;9485;49.386;8.674;2023-03-14T17:21:06;99310.97;;;13.03
18713;BMP280;9485;49.386;8.674;2023-03-14T17:26:29;99333.19;;;12.80
18713;BMP280;9485;49.386;8.674;2023-03-14T17:31:49;99333.72;;;12.61
18713;BMP280;9485;49.386;8.674;2023-03-14T17:37:11;99345.50;;;12.46
18713;BMP280;9485;49.386;8.674;2023-03-14T17:42:33;99354.66;;;12.34
18713;BMP280;9485;49.386;8.674;2023-03-14T17:47:55;99378.19;;;12.23
18713;BMP280;9485;49.386;8.674;2023-03-14T17:53:15;99390.41;;;12.13
18713;BMP280;9485;49.386;8.674;2023-03-14T17:58:38;99411.09;;;12.02
18713;BMP280;9485;49.386;8.674;2023-03-14T18:04:02;99421.50;;;11.95
18713;BMP280;9485;49.386;8.674;2023-03-14T18:09:23;99425.13;;;11.90
18713;BMP280;9485;49.386;8.674;2023-03-14T18:14:45;99455.25;;;11.82
18713;BMP280;9485;49.386;8.674;2023-03-14T18:20:08;99451.53;;;11.68
18713;BMP280;9485;49.386;8.674;2023-03-14T18:25:31;99469.09;;;11.61
18713;BMP280;9485;49.386;8.674;2023-03-14T18:30:59;99486.13;;;11.45
18713;BMP280;9485;49.386;8.674;2023-03-14T18:36:21;99496.00;;;11.27
18713;BMP280;9485;49.386;8.674;2023-03-14T18:41:41;99504.53;;;11.17
18713;BMP280;9485;49.386;8.674;2023-03-14T18:47:04;99519.00;;;11.08
18713;BMP280;9485;49.386;8.674;2023-03-14T18:52:24;99530.56;;;11.04
18713;BMP280;9485;49.386;8.674;2023-03-14T18:57:46;99544.69;;;11.04
18713;BMP280;9485;49.386;8.674;2023-03-14T19:03:08;99548.25;;;11.10
18713;BMP280;9485;49.386;8.674;2023-03-14T19:08:29;99556.72;;;11.10
18713;BMP280;9485;49.386;8.674;2023-03-14T19:13:53;99563.41;;;11.07
18713;BMP280;9485;49.386;8.674;2023-03-14T19:19:16;99586.34;;;10.82
18713;BMP280;9485;49.386;8.674;2023-03-14T19:24:37;99595.41;;;10.37
18713;BMP280;9485;49.386;8.674;2023-03-14T19:29:58;99581.78;;;9.86
18713;BMP280;9485;49.386;8.674;2023-03-14T19:35:20;99613.53;;;9.75
18713;BMP280;9485;49.386;8.674;2023-03-14T19:40:42;99632.25;;;9.62
18713;BMP280;9485;49.386;8.674;2023-03-14T19:46:04;99642.97;;;9.53
18713;BMP280;9485;49.386;8.674;2023-03-14T19:51:27;99670.84;;;9.40
18713;BMP280;9485;49.386;8.674;2023-03-14T19:56:49;99673.31;;;9.21
18713;BMP280;9485;49.386;8.674;2023-03-14T20:02:13;99689.19;;;9.24
18713;BMP280;9485;49.386;8.674;2023-03-14T20:07:36;99705.59;;;9.20
18713;BMP280;9485;49.386;8.674;2023-03-14T20:12:56;99714.25;;;9.17
18713;BMP280;9485;49.386;8.674;2023-03-14T20:18:18;99734.97;;;9.14
18713;BMP280;9485;49.386;8.674;2023-03-14T20:23:42;99742.63;;;9.08
18713;BMP280;9485;49.386;8.674;2023-03-14T20:29:04;99758.41;;;8.95
18713;BMP280;9485;49.386;8.674;2023-03-14T20:34:24;99754.22;;;8.85
18713;BMP280;9485;49.386;8.674;2023-03-14T20:39:46;99746.69;;;8.71
18713;BMP280;9485;49.386;8.674;2023-03-14T20:45:07;99769.81;;;8.49
18713;BMP280;9485;49.386;8.674;2023-03-14T20:50:28;99800.75;;;8.24
18713;BMP280;9485;49.386;8.674;2023-03-14T20:55:54;99778.25;;;7.84
18713;BMP280;9485;49.386;8.674;2023-03-14T21:01:15;99833.56;;;7.73
18713;BMP280;9485;49.386;8.674;2023-03-14T21:06:36;99837.81;;;7.48
18713;BMP280;9485;49.386;8.674;2023-03-14T21:11:58;99856.16;;;7.30
18713;BMP280;9485;49.386;8.674;2023-03-14T21:17:20;99881.75;;;7.17
18713;BMP280;9485;49.386;8.674;2023-03-14T21:22:40;99891.25;;;7.05
18713;BMP280;9485;49.386;8.674;2023-03-14T21:28:03;99889.03;;;6.95
18713;BMP280;9485;49.386;8.674;2023-03-14T21:33:24;99898.63;;;6.88
18713;BMP280;9485;49.386;8.674;2023-03-14T21:38:44;99899.28;;;6.83
18713;BMP280;9485;49.386;8.674;2023-03-14T21:44:06;99902.28;;;6.80
18713;BMP280;9485;49.386;8.674;2023-03-14T21:49:27;99925.22;;;6.78
18713;BMP280;9485;49.386;8.674;2023-03-14T21:54:49;99932.75;;;6.72
18713;BMP280;9485;49.386;8.674;2023-03-14T22:00:15;99949.28;;;6.70
18713;BMP280;9485;49.386;8.674;2023-03-14T22:05:35;99963.63;;;6.72
18713;BMP280;9485;49.386;8.674;2023-03-14T22:10:56;99976.41;;;6.73
18713;BMP280;9485;49.386;8.674;2023-03-14T22:16:18;99978.84;;;6.80
18713;BMP280;9485;49.386;8.674;2023-03-14T22:21:38;99983.75;;;6.85
18713;BMP280;9485;49.386;8.674;2023-03-14T22:26:59;99983.38;;;6.92
18713;BMP280;9485;49.386;8.674;2023-03-14T22:32:21;99986.50;;;6.94
18713;BMP280;9485;49.386;8.674;2023-03-14T22:37:41;99997.66;;;7.03
18713;BMP280;9485;49.386;8.674;2023-03-14T22:43:01;99997.91;;;7.05
18713;BMP280;9485;49.386;8.674;2023-03-14T22:48:23;100015.38;;;7.09
18713;BMP280;9485;49.386;8.674;2023-03-14T22:53:44;100023.28;;;7.11
18713;BMP280;9485;49.386;8.674;2023-03-14T22:59:05;100039.38;;;7.10
18713;BMP280;9485;49.386;8.674;2023-03-14T23:04:27;100034.22;;;7.09
18713;BMP280;9485;49.386;8.674;2023-03-14T23:09:48;100045.19;;;7.07
18713;BMP280;9485;49.386;8.674;2023-03-14T23:15:10;100052.31;;;7.08
18713;BMP280;9485;49.386;8.674;2023-03-14T23:20:35;100072.78;;;7.08
18713;BMP280;9485;49.386;8.674;2023-03-14T23:25:55;100081.69;;;7.07
18713;BMP280;9485;49.386;8.674;2023-03-14T23:31:17;100094.44;;;7.08
18713;BMP280;9485;49.386;8.674;2023-03-14T23:36:38;100099.88;;;7.11
18713;BMP280;9485;49.386;8.674;2023-03-14T23:41:59;100109.66;;;7.16
18713;BMP280;9485;49.386;8.674;2023-03-14T23:47:19;100124.00;;;7.18
18713;BMP280;9485;49.386;8.674;2023-03-14T23:52:42;100145.88;;;7.14
18713;BMP280;9485;49.386;8.674;2023-03-14T23:58:03;100159.63;;;7.12
